Time;durP1;ratioP1;P1;durP2;ratioP2;P2;SDS_P1;SDS_P2;PMS_P1;PMS_P2;Temp;Humidity;BMP_temperature;BMP_pressure;BME280_temperature;BME280_humidity;BME280_pressure;Samples;Min_cycle;Max_cycle;Signal;HPM_P1;HPM_P2
2022/08/09 00:01:59;;;;;;;4.90;3.33;;;21.00;99.90;;;;;;5009033;28;20661;-69
2022/08/09 00:04:25;;;;;;;5.20;3.20;;;21.00;99.90;;;;;;5004836;28;20229;-68
2022/08/09 00:06:50;;;;;;;5.38;3.50;;;20.90;99.90;;;;;;5004443;28;20211;-68
2022/08/09 00:09:16;;;;;;;4.65;3.13;;;21.00;99.90;;;;;;5006154;28;20240;-69
2022/08/09 00:11:43;;;;;;;5.07;3.10;;;21.00;99.90;;;;;;5007399;28;20200;-69
2022/08/09 00:14:09;;;;;;;5.88;3.63;;;21.00;99.90;;;;;;5003924;28;20649;-68
2022/08/09 00:16:35;;;;;;;4.38;3.25;;;21.00;99.90;;;;;;5006200;28;20223;-68
2022/08/09 00:19:01;;;;;;;5.03;3.25;;;21.00;99.90;;;;;;5008623;28;20205;-69
2022/08/09 00:21:27;;;;;;;4.65;3.28;;;21.10;99.90;;;;;;5004337;28;20645;-69
2022/08/09 00:23:54;;;;;;;6.05;3.33;;;21.00;99.90;;;;;;5000548;28;20240;-69
2022/08/09 00:26:20;;;;;;;4.20;3.33;;;21.10;99.90;;;;;;5006597;28;20200;-69
2022/08/09 00:28:46;;;;;;;3.72;3.00;;;21.10;99.90;;;;;;5005313;28;20169;-68
2022/08/09 00:31:11;;;;;;;4.72;3.25;;;21.20;99.90;;;;;;4991594;28;20203;-69
2022/08/09 00:33:38;;;;;;;5.25;3.28;;;21.10;99.90;;;;;;4993007;28;20213;-69
2022/08/09 00:36:04;;;;;;;6.53;3.08;;;21.20;99.90;;;;;;5008959;28;20231;-69
2022/08/09 00:38:29;;;;;;;8.18;3.75;;;21.10;99.90;;;;;;4986422;28;20221;-69
2022/08/09 00:40:55;;;;;;;6.07;3.40;;;21.10;99.90;;;;;;4985641;28;20204;-69
2022/08/09 00:43:22;;;;;;;3.83;2.85;;;21.30;99.90;;;;;;4988737;28;20205;-68
2022/08/09 00:45:48;;;;;;;4.95;2.88;;;21.30;99.90;;;;;;5029363;22;20273;-75
2022/08/09 00:48:13;;;;;;;4.72;3.40;;;21.30;99.90;;;;;;5031282;28;20200;-75
2022/08/09 00:50:39;;;;;;;6.40;3.42;;;21.30;99.90;;;;;;5034152;28;20204;-74
2022/08/09 00:53:05;;;;;;;4.82;3.40;;;21.20;99.90;;;;;;5032025;28;20190;-75
2022/08/09 00:55:31;;;;;;;4.80;3.33;;;21.10;99.90;;;;;;5010164;28;20211;-74
2022/08/09 00:57:57;;;;;;;4.38;3.20;;;21.10;99.90;;;;;;5010824;28;20200;-75
2022/08/09 01:00:22;;;;;;;4.85;3.22;;;21.10;99.90;;;;;;5010775;28;20642;-73
2022/08/09 01:03:19;;;;;;;3.45;3.15;;;21.00;99.90;;;;;;5011165;28;20662;-75
2022/08/09 01:05:53;;;;;;;5.47;3.63;;;20.90;99.90;;;;;;4993019;28;20608;-74
2022/08/09 01:08:23;;;;;;;4.25;3.20;;;21.00;99.90;;;;;;4993088;28;20227;-74
2022/08/09 01:11:07;;;;;;;5.25;3.08;;;21.00;99.90;;;;;;4991011;28;20191;-74
2022/08/09 01:13:58;;;;;;;5.45;3.38;;;21.00;99.90;;;;;;5009325;28;20741;-75
2022/08/09 01:16:28;;;;;;;8.95;3.50;;;21.00;99.90;;;;;;5008241;28;20216;-75
2022/08/09 01:19:01;;;;;;;7.38;3.05;;;21.10;99.90;;;;;;5012755;28;20283;-75
2022/08/09 01:21:43;;;;;;;6.32;3.17;;;21.10;99.90;;;;;;4993292;28;20223;-75
2022/08/09 01:24:34;;;;;;;3.60;3.30;;;21.00;99.90;;;;;;5005695;28;20769;-75
2022/08/09 01:27:08;;;;;;;8.20;3.03;;;20.90;99.90;;;;;;5009149;28;20208;-75
2022/08/09 01:29:42;;;;;;;6.93;3.55;;;20.80;99.90;;;;;;5008697;28;20323;-75
2022/08/09 01:32:10;;;;;;;5.28;3.33;;;20.90;99.90;;;;;;4993540;28;20533;-75
2022/08/09 01:34:41;;;;;;;7.70;3.40;;;20.90;99.90;;;;;;5009409;28;20208;-75
2022/08/09 01:37:09;;;;;;;6.35;3.78;;;20.80;99.90;;;;;;5010765;28;20200;-75
2022/08/09 01:39:36;;;;;;;4.63;3.20;;;20.70;99.90;;;;;;5010061;28;20244;-76
2022/08/09 01:42:04;;;;;;;4.38;3.28;;;20.70;99.90;;;;;;5010639;28;20262;-75
2022/08/09 01:44:31;;;;;;;3.78;2.90;;;20.60;99.90;;;;;;5010011;28;20568;-74
2022/08/09 01:46:59;;;;;;;7.00;3.55;;;20.60;99.90;;;;;;5010570;28;20838;-74
2022/08/09 01:49:27;;;;;;;3.65;2.60;;;20.60;99.90;;;;;;5008016;28;20185;-75
2022/08/09 01:51:55;;;;;;;6.40;4.18;;;20.70;99.90;;;;;;5012159;28;20255;-75
2022/08/09 01:54:30;;;;;;;5.10;3.22;;;20.70;99.90;;;;;;5013767;28;20388;-74
2022/08/09 01:56:58;;;;;;;5.47;3.10;;;20.70;99.90;;;;;;5014346;28;20211;-75
2022/08/09 01:59:26;;;;;;;5.50;3.70;;;20.70;99.90;;;;;;5013663;28;20608;-75
2022/08/09 02:01:54;;;;;;;3.80;3.20;;;20.70;99.90;;;;;;5013119;28;20203;-74
2022/08/09 02:04:21;;;;;;;3.90;3.00;;;20.70;99.90;;;;;;5014548;28;20681;-75
2022/08/09 02:07:08;;;;;;;6.55;3.42;;;20.70;99.90;;;;;;5013535;28;20208;-75
2022/08/09 02:09:41;;;;;;;8.65;4.90;;;20.70;99.90;;;;;;5013646;28;20205;-75
2022/08/09 02:12:10;;;;;;;5.35;3.88;;;20.80;99.90;;;;;;4990901;28;20212;-75
2022/08/09 02:14:37;;;;;;;9.32;4.93;;;20.90;99.90;;;;;;5014033;28;20638;-74
2022/08/09 02:17:04;;;;;;;7.35;3.38;;;20.90;99.90;;;;;;5013838;28;20664;-75
2022/08/09 02:19:29;;;;;;;5.45;3.30;;;21.00;99.90;;;;;;5014297;28;20263;-75
2022/08/09 02:21:59;;;;;;;3.97;3.53;;;21.00;99.90;;;;;;5014034;28;20562;-75
2022/08/09 02:24:34;;;;;;;5.10;3.47;;;21.00;99.90;;;;;;5013403;28;20232;-75
2022/08/09 02:27:03;;;;;;;3.90;3.40;;;20.90;99.90;;;;;;5013966;28;20732;-75
2022/08/09 02:29:33;;;;;;;4.85;3.05;;;21.00;99.90;;;;;;4993580;28;20324;-75
2022/08/09 02:32:02;;;;;;;5.38;2.95;;;20.90;99.90;;;;;;5009202;28;20173;-75
2022/08/09 02:34:31;;;;;;;6.25;3.28;;;21.00;99.90;;;;;;5009203;28;20247;-75
2022/08/09 02:37:00;;;;;;;4.75;3.60;;;20.90;99.90;;;;;;4988144;28;20196;-74
2022/08/09 02:39:34;;;;;;;4.25;3.40;;;20.90;99.90;;;;;;5012800;28;20212;-74
2022/08/09 02:42:11;;;;;;;6.32;3.60;;;20.90;99.90;;;;;;5013584;28;20243;-75
2022/08/09 02:44:41;;;;;;;4.18;3.75;;;20.90;99.90;;;;;;4993992;28;20213;-75
2022/08/09 02:47:11;;;;;;;5.65;3.60;;;20.90;99.90;;;;;;5010198;28;20169;-75
2022/08/09 02:49:49;;;;;;;6.25;3.20;;;21.00;99.90;;;;;;5013365;28;20173;-75
2022/08/09 02:52:16;;;;;;;4.95;3.67;;;21.00;99.90;;;;;;4995484;28;20263;-75
2022/08/09 02:54:44;;;;;;;4.93;3.25;;;20.90;99.90;;;;;;5014178;28;20213;-75
2022/08/09 02:57:10;;;;;;;7.07;3.65;;;21.00;99.90;;;;;;5013049;28;20291;-75
2022/08/09 02:59:38;;;;;;;6.78;3.65;;;21.00;99.90;;;;;;5012511;28;20693;-75
2022/08/09 03:02:06;;;;;;;4.72;3.38;;;20.90;99.90;;;;;;5012566;28;20205;-75
2022/08/09 03:04:35;;;;;;;5.68;3.35;;;20.90;99.90;;;;;;4993604;28;20197;-75
2022/08/09 03:07:02;;;;;;;5.75;3.55;;;21.00;99.90;;;;;;5012702;28;20207;-75
2022/08/09 03:09:29;;;;;;;7.38;3.22;;;20.90;99.90;;;;;;5012271;28;20212;-75
2022/08/09 03:11:57;;;;;;;7.80;3.90;;;21.00;99.90;;;;;;5012712;28;20205;-75
2022/08/09 03:14:24;;;;;;;5.03;3.45;;;21.00;99.90;;;;;;4991935;28;20217;-75
2022/08/09 03:16:51;;;;;;;4.55;3.45;;;21.00;99.90;;;;;;4995851;28;20677;-75
2022/08/09 03:19:18;;;;;;;7.40;3.72;;;20.90;99.90;;;;;;4995044;28;20634;-76
2022/08/09 03:21:49;;;;;;;4.00;3.60;;;20.90;99.90;;;;;;4994880;28;20284;-75
2022/08/09 03:24:15;;;;;;;5.00;3.45;;;20.90;99.90;;;;;;5012587;28;20196;-75
2022/08/09 03:26:41;;;;;;;6.18;4.15;;;20.80;99.90;;;;;;5012408;28;20241;-75
2022/08/09 03:29:07;;;;;;;7.68;3.75;;;20.80;99.90;;;;;;5012329;28;20231;-75
2022/08/09 03:31:34;;;;;;;4.93;3.38;;;20.80;99.90;;;;;;5012762;28;20169;-75
2022/08/09 03:34:01;;;;;;;5.85;3.83;;;20.80;99.90;;;;;;5012442;28;20211;-74
2022/08/09 03:36:27;;;;;;;6.53;3.95;;;20.80;99.90;;;;;;4992268;28;20205;-74
2022/08/09 03:38:53;;;;;;;6.88;3.80;;;20.70;99.90;;;;;;5012015;28;20259;-75
2022/08/09 03:41:19;;;;;;;5.38;3.63;;;20.70;99.90;;;;;;5012183;28;20724;-75
2022/08/09 03:43:45;;;;;;;6.38;4.00;;;20.70;99.90;;;;;;4995027;28;20184;-75
2022/08/09 03:46:11;;;;;;;5.45;3.92;;;20.80;99.90;;;;;;5011977;28;20220;-75
2022/08/09 03:48:39;;;;;;;5.93;3.90;;;20.80;99.90;;;;;;5011663;28;20201;-75
2022/08/09 03:51:08;;;;;;;5.82;4.10;;;20.80;99.90;;;;;;5012182;28;20201;-75
2022/08/09 03:53:36;;;;;;;6.75;3.75;;;20.70;99.90;;;;;;4999349;28;20217;-75
2022/08/09 03:56:03;;;;;;;6.03;3.58;;;20.80;99.90;;;;;;5008362;28;20204;-75
2022/08/09 03:58:29;;;;;;;6.43;3.85;;;20.80;99.90;;;;;;5011948;28;20169;-75
2022/08/09 04:00:55;;;;;;;5.47;3.90;;;20.80;99.90;;;;;;5011903;28;20201;-75
2022/08/09 04:03:21;;;;;;;9.00;4.07;;;20.80;99.90;;;;;;5011790;28;20204;-75
2022/08/09 04:05:47;;;;;;;5.78;3.90;;;20.80;99.90;;;;;;5010072;28;20686;-75
2022/08/09 04:08:12;;;;;;;6.20;3.97;;;20.80;99.90;;;;;;5011482;28;20335;-75
2022/08/09 04:10:38;;;;;;;7.78;4.32;;;20.80;99.90;;;;;;5009851;28;20268;-75
2022/08/09 04:13:10;;;;;;;6.60;3.65;;;20.90;99.90;;;;;;5011836;28;20704;-75
2022/08/09 04:15:37;;;;;;;7.03;3.85;;;20.90;99.90;;;;;;5011452;28;20209;-75
2022/08/09 04:18:04;;;;;;;5.18;3.90;;;20.90;99.90;;;;;;5011265;28;20212;-72
2022/08/09 04:20:30;;;;;;;5.43;3.72;;;20.80;99.90;;;;;;5011041;28;20221;-75
2022/08/09 04:22:57;;;;;;;6.72;4.38;;;20.80;99.90;;;;;;5011384;28;20530;-75
2022/08/09 04:25:22;;;;;;;5.72;4.30;;;20.80;99.90;;;;;;5011599;28;20192;-75
2022/08/09 04:27:48;;;;;;;6.40;4.65;;;20.80;99.90;;;;;;5010273;28;20201;-75
2022/08/09 04:30:16;;;;;;;5.13;3.80;;;20.80;99.90;;;;;;5011117;28;20205;-74
2022/08/09 04:32:42;;;;;;;6.93;3.97;;;20.80;99.90;;;;;;5011203;28;20807;-75
2022/08/09 04:35:09;;;;;;;4.47;3.80;;;20.80;99.90;;;;;;5009382;28;20185;-74
2022/08/09 04:37:36;;;;;;;4.95;4.13;;;20.80;99.90;;;;;;4992447;28;20657;-75
2022/08/09 04:40:02;;;;;;;6.35;4.20;;;20.80;99.90;;;;;;5011052;28;20239;-75
2022/08/09 04:42:29;;;;;;;6.35;4.53;;;20.80;99.90;;;;;;4993267;28;20582;-75
2022/08/09 04:44:55;;;;;;;6.25;4.50;;;20.70;99.90;;;;;;5011089;28;20300;-75
2022/08/09 04:47:23;;;;;;;7.88;4.47;;;20.70;99.90;;;;;;5010949;28;20766;-73
2022/08/09 04:49:49;;;;;;;10.10;4.50;;;20.70;99.90;;;;;;5011179;28;20537;-75
2022/08/09 04:52:14;;;;;;;5.80;4.47;;;20.70;99.90;;;;;;4993262;28;20197;-75
2022/08/09 04:54:40;;;;;;;7.43;4.50;;;20.70;99.90;;;;;;5009974;28;20216;-75
2022/08/09 04:57:05;;;;;;;6.90;4.35;;;20.80;99.90;;;;;;4993363;28;20208;-76
2022/08/09 04:59:31;;;;;;;6.40;3.92;;;20.70;99.90;;;;;;5010713;28;20233;-75
2022/08/09 05:01:57;;;;;;;6.82;5.20;;;20.80;99.90;;;;;;5011077;28;20536;-74
2022/08/09 05:04:22;;;;;;;8.30;4.68;;;20.80;99.90;;;;;;5011134;28;20228;-75
2022/08/09 05:06:48;;;;;;;8.07;5.32;;;20.70;99.90;;;;;;5010918;28;20197;-75
2022/08/09 05:09:14;;;;;;;9.20;5.53;;;20.90;99.90;;;;;;4993152;28;20204;-74
2022/08/09 05:11:39;;;;;;;7.65;5.05;;;20.90;99.90;;;;;;5010876;28;20689;-75
2022/08/09 05:14:05;;;;;;;8.48;5.20;;;21.00;99.90;;;;;;5009472;28;20165;-75
2022/08/09 05:16:30;;;;;;;9.13;4.32;;;21.10;99.90;;;;;;5011056;28;20646;-75
2022/08/09 05:18:56;;;;;;;8.65;5.05;;;21.00;99.90;;;;;;5010631;28;20205;-74
2022/08/09 05:21:22;;;;;;;8.65;6.53;;;21.10;99.90;;;;;;5010577;28;20682;-75
2022/08/09 05:23:47;;;;;;;12.38;4.97;;;21.20;99.90;;;;;;5010646;28;20239;-75
2022/08/09 05:26:13;;;;;;;7.13;4.45;;;21.20;99.90;;;;;;5014158;28;20212;-75
2022/08/09 05:28:38;;;;;;;8.20;4.82;;;21.20;99.90;;;;;;5017504;28;20185;-75
2022/08/09 05:31:04;;;;;;;11.75;4.88;;;21.10;99.90;;;;;;5018682;28;20690;-74
2022/08/09 05:33:29;;;;;;;10.00;5.70;;;21.10;99.90;;;;;;5016930;28;20239;-75
2022/08/09 05:35:55;;;;;;;9.77;4.72;;;21.10;99.90;;;;;;5015751;28;20266;-74
2022/08/09 05:38:21;;;;;;;8.02;5.25;;;21.20;99.90;;;;;;4999263;28;20231;-74
2022/08/09 05:40:46;;;;;;;8.80;5.03;;;21.20;99.90;;;;;;5017544;28;20196;-75
2022/08/09 05:43:12;;;;;;;8.70;5.05;;;21.30;99.90;;;;;;5017358;28;20746;-74
2022/08/09 05:45:38;;;;;;;9.57;4.43;;;21.30;99.90;;;;;;4996769;28;20759;-74
2022/08/09 05:48:04;;;;;;;8.10;5.05;;;21.50;99.90;;;;;;5016037;28;20197;-74
2022/08/09 05:50:29;;;;;;;9.88;4.93;;;21.60;99.90;;;;;;5016150;28;20212;-75
2022/08/09 05:52:55;;;;;;;7.07;4.97;;;21.70;99.90;;;;;;5017608;28;20625;-75
2022/08/09 05:55:21;;;;;;;5.50;4.35;;;21.90;99.90;;;;;;5016872;28;20181;-76
2022/08/09 05:57:48;;;;;;;11.10;4.88;;;22.10;99.90;;;;;;5015258;28;20201;-75
2022/08/09 06:00:14;;;;;;;7.95;5.07;;;22.20;99.90;;;;;;5015918;28;20693;-76
2022/08/09 06:02:39;;;;;;;6.53;4.88;;;22.40;99.90;;;;;;5015840;28;20208;-76
2022/08/09 06:05:06;;;;;;;7.28;4.68;;;22.50;99.90;;;;;;5015716;28;20685;-75
2022/08/09 06:07:33;;;;;;;11.07;4.45;;;23.10;99.90;;;;;;5015818;28;20650;-76
2022/08/09 06:10:00;;;;;;;7.95;5.03;;;23.40;99.90;;;;;;5014417;28;20208;-76
2022/08/09 06:12:25;;;;;;;8.57;5.28;;;23.50;99.90;;;;;;5015435;28;20224;-76
2022/08/09 06:14:51;;;;;;;7.18;4.60;;;23.90;99.90;;;;;;5015971;28;20312;-76
2022/08/09 06:17:17;;;;;;;7.38;4.55;;;24.90;99.90;;;;;;4997816;28;20288;-76
2022/08/09 06:19:43;;;;;;;6.57;4.30;;;26.70;99.90;;;;;;4998290;28;20196;-76
2022/08/09 06:22:08;;;;;;;5.47;3.92;;;27.40;99.90;;;;;;4998337;28;20193;-74
2022/08/09 06:24:34;;;;;;;4.40;3.65;;;26.90;99.90;;;;;;5015240;28;20271;-74
2022/08/09 06:26:59;;;;;;;6.45;3.60;;;26.40;99.90;;;;;;5015661;28;20201;-75
2022/08/09 06:29:25;;;;;;;5.88;4.72;;;27.00;99.90;;;;;;5015271;28;20236;-74
2022/08/09 06:31:50;;;;;;;5.85;4.15;;;26.50;99.90;;;;;;5015564;28;20180;-74
2022/08/09 06:34:17;;;;;;;6.35;4.50;;;25.70;99.90;;;;;;5016089;28;20204;-75
2022/08/09 06:36:43;;;;;;;6.35;3.78;;;25.60;99.90;;;;;;5014545;28;20204;-74
2022/08/09 06:39:10;;;;;;;5.85;4.03;;;26.30;99.90;;;;;;5011503;28;20287;-75
2022/08/09 06:41:36;;;;;;;7.90;3.58;;;26.90;99.90;;;;;;4986898;28;20259;-74
2022/08/09 06:44:02;;;;;;;5.18;3.35;;;27.60;99.90;;;;;;5012006;28;20267;-74
2022/08/09 06:46:28;;;;;;;6.72;3.58;;;27.00;99.90;;;;;;4972644;23;1081403;-70
2022/08/09 06:48:53;;;;;;;6.35;3.78;;;27.20;99.90;;;;;;4996767;28;20303;-69
2022/08/09 06:51:19;;;;;;;8.57;3.65;;;27.10;99.90;;;;;;4995251;28;20193;-68
2022/08/09 06:53:44;;;;;;;6.88;3.75;;;27.00;99.90;;;;;;4992908;28;20197;-69
2022/08/09 06:56:10;;;;;;;7.78;4.68;;;26.70;99.90;;;;;;4994486;28;20221;-70
2022/08/09 06:58:36;;;;;;;5.68;3.60;;;26.90;99.90;;;;;;4993646;28;20540;-70
2022/08/09 07:01:01;;;;;;;5.30;3.63;;;27.40;99.90;;;;;;4993431;28;20209;-67
2022/08/09 07:03:27;;;;;;;6.25;3.95;;;27.40;99.90;;;;;;4995636;28;20765;-68
2022/08/09 07:05:54;;;;;;;4.30;3.40;;;28.90;99.90;;;;;;4993241;28;20206;-68
2022/08/09 07:08:20;;;;;;;4.65;3.28;;;28.90;99.90;;;;;;4989100;28;20629;-67
2022/08/09 07:10:45;;;;;;;3.50;3.17;;;29.70;99.90;;;;;;4993288;28;20261;-68
2022/08/09 07:13:11;;;;;;;4.47;3.25;;;30.10;99.30;;;;;;4992804;28;20574;-67
2022/08/09 07:15:36;;;;;;;4.38;3.03;;;30.30;98.80;;;;;;4992720;28;20588;-68
2022/08/09 07:18:02;;;;;;;6.95;4.28;;;30.40;97.70;;;;;;4992634;28;20328;-68
2022/08/09 07:20:27;;;;;;;8.15;3.13;;;29.80;97.30;;;;;;4995449;28;20355;-68
2022/08/09 07:22:53;;;;;;;6.97;3.28;;;29.50;97.50;;;;;;4992955;28;20178;-66
2022/08/09 07:25:19;;;;;;;7.13;3.72;;;29.20;98.10;;;;;;4992817;28;20190;-68
2022/08/09 07:27:45;;;;;;;3.85;3.00;;;29.40;96.90;;;;;;4996832;28;20292;-68
2022/08/09 07:30:14;;;;;;;6.53;3.40;;;29.10;96.70;;;;;;4992399;28;20206;-68
2022/08/09 07:32:40;;;;;;;7.45;2.92;;;29.00;96.50;;;;;;4992308;28;20213;-67
2022/08/09 07:35:08;;;;;;;10.23;2.97;;;28.70;97.40;;;;;;4992536;28;20552;-67
2022/08/09 07:37:34;;;;;;;7.45;3.60;;;30.60;95.80;;;;;;4992283;28;20212;-67
2022/08/09 07:40:00;;;;;;;3.28;2.60;;;31.20;94.10;;;;;;4991983;28;20218;-67
2022/08/09 07:42:26;;;;;;;9.93;4.80;;;30.40;93.40;;;;;;4992106;28;20292;-67
2022/08/09 07:44:51;;;;;;;5.97;3.20;;;30.70;93.50;;;;;;4992272;28;20197;-68
2022/08/09 07:47:17;;;;;;;8.27;3.45;;;31.60;92.30;;;;;;4991758;28;20300;-68
2022/08/09 07:49:43;;;;;;;4.63;2.85;;;31.70;91.50;;;;;;4991981;28;20216;-68
2022/08/09 07:52:09;;;;;;;4.13;3.00;;;32.10;90.60;;;;;;4992022;28;20229;-67
2022/08/09 07:54:35;;;;;;;4.22;2.60;;;31.30;90.20;;;;;;4995759;28;20210;-68
2022/08/09 07:57:01;;;;;;;3.22;2.53;;;30.40;91.20;;;;;;4992559;28;20229;-68
2022/08/09 07:59:27;;;;;;;4.70;2.42;;;30.60;91.20;;;;;;4991909;28;20221;-68
2022/08/09 08:01:54;;;;;;;5.40;2.80;;;31.50;90.50;;;;;;4992445;28;20174;-68
2022/08/09 08:04:21;;;;;;;3.67;2.60;;;32.90;88.40;;;;;;4994917;28;20192;-68
2022/08/09 08:06:46;;;;;;;3.58;2.83;;;34.10;84.80;;;;;;4992055;28;20717;-69
2022/08/09 08:09:12;;;;;;;5.10;2.60;;;35.20;81.10;;;;;;4992125;28;20197;-68
2022/08/09 08:11:38;;;;;;;5.50;2.55;;;34.80;78.40;;;;;;4989799;28;20205;-68
2022/08/09 08:14:04;;;;;;;4.70;2.70;;;34.80;77.00;;;;;;4992091;28;20252;-69
2022/08/09 08:16:29;;;;;;;4.68;2.47;;;34.80;76.10;;;;;;4988703;28;20279;-68
2022/08/09 08:18:56;;;;;;;4.28;2.55;;;34.10;76.40;;;;;;4991626;28;20228;-68
2022/08/09 08:21:22;;;;;;;3.50;2.30;;;33.00;78.30;;;;;;4973820;28;20309;-68
2022/08/09 08:23:48;;;;;;;7.53;2.50;;;32.90;78.60;;;;;;4991524;28;20279;-68
2022/08/09 08:26:14;;;;;;;3.38;2.42;;;32.30;78.50;;;;;;4991632;28;20679;-68
2022/08/09 08:28:39;;;;;;;5.45;2.50;;;32.10;78.70;;;;;;4991689;28;20690;-68
2022/08/09 08:31:05;;;;;;;4.53;2.63;;;32.80;78.20;;;;;;4991798;28;20268;-68
2022/08/09 08:33:30;;;;;;;3.08;2.65;;;31.90;78.40;;;;;;4991536;28;20197;-68
2022/08/09 08:35:56;;;;;;;8.75;3.00;;;32.20;79.50;;;;;;4991765;28;20218;-68
2022/08/09 08:38:21;;;;;;;3.67;2.75;;;32.20;79.00;;;;;;4991093;28;20292;-68
2022/08/09 08:40:48;;;;;;;2.58;2.38;;;31.80;78.70;;;;;;4992215;28;20197;-68
2022/08/09 08:43:14;;;;;;;4.05;2.42;;;32.70;78.70;;;;;;4973905;28;20280;-70
2022/08/09 08:45:47;;;;;;;2.95;2.30;;;33.40;77.50;;;;;;4991148;28;20296;-68
2022/08/09 08:48:13;;;;;;;2.95;2.53;;;34.20;76.10;;;;;;4991154;28;20201;-70
2022/08/09 08:50:39;;;;;;;4.25;2.38;;;34.00;73.90;;;;;;4991175;28;20275;-69
2022/08/09 08:53:05;;;;;;;3.28;2.33;;;32.80;74.80;;;;;;4991320;28;20181;-70
2022/08/09 08:55:31;;;;;;;3.83;2.38;;;32.90;75.20;;;;;;4991121;28;20173;-70
2022/08/09 08:57:56;;;;;;;3.30;2.10;;;32.10;75.60;;;;;;4991606;28;20201;-70
2022/08/09 09:00:22;;;;;;;3.13;2.22;;;32.20;76.60;;;;;;4990563;28;20316;-70
2022/08/09 09:02:50;;;;;;;5.90;2.60;;;31.40;76.10;;;;;;4991149;28;20233;-69
2022/08/09 09:05:23;;;;;;;7.65;2.70;;;31.60;77.90;;;;;;4973719;28;20213;-70
2022/08/09 09:07:51;;;;;;;5.03;2.45;;;31.80;77.60;;;;;;4991152;28;20166;-71
2022/08/09 09:10:17;;;;;;;3.17;2.30;;;31.70;76.70;;;;;;4973734;28;20657;-69
2022/08/09 09:12:45;;;;;;;3.58;3.20;;;31.00;77.90;;;;;;4991196;28;20292;-70
2022/08/09 09:15:11;;;;;;;5.43;2.55;;;30.90;78.70;;;;;;4991238;28;20202;-69
2022/08/09 09:17:37;;;;;;;3.85;2.20;;;32.10;77.90;;;;;;4990581;28;20228;-67
2022/08/09 09:20:10;;;;;;;4.15;1.88;;;32.60;76.30;;;;;;4973025;28;20233;-69
2022/08/09 09:23:08;;;;;;;4.05;2.63;;;33.30;75.50;;;;;;4990046;28;20243;-70
2022/08/09 09:25:45;;;;;;;3.50;2.22;;;33.50;74.80;;;;;;4948310;28;20209;-67
2022/08/09 09:28:12;;;;;;;4.22;2.75;;;32.80;73.90;;;;;;4986848;28;20209;-70
2022/08/09 09:30:56;;;;;;;4.70;2.75;;;32.20;75.60;;;;;;4984338;28;20301;-69
2022/08/09 09:33:36;;;;;;;2.80;2.47;;;31.70;77.00;;;;;;4987456;28;20201;-68
2022/08/09 09:36:05;;;;;;;3.83;2.45;;;31.80;77.80;;;;;;4990952;28;20229;-70
2022/08/09 09:38:45;;;;;;;6.18;2.38;;;31.80;77.30;;;;;;4990097;28;20208;-70
2022/08/09 09:41:24;;;;;;;3.28;2.05;;;32.00;77.30;;;;;;4990950;28;20311;-69
2022/08/09 09:43:50;;;;;;;2.90;2.60;;;32.40;76.70;;;;;;4987588;28;20658;-69
2022/08/09 09:46:16;;;;;;;6.50;3.10;;;32.70;76.10;;;;;;4990971;28;20215;-67
2022/08/09 09:49:03;;;;;;;5.88;3.00;;;31.70;75.70;;;;;;4990113;28;20232;-69
2022/08/09 09:51:30;;;;;;;3.55;2.30;;;30.30;77.90;;;;;;4988529;28;20229;-69
2022/08/09 09:54:13;;;;;;;4.00;2.33;;;29.80;80.10;;;;;;4990597;28;20267;-68
2022/08/09 09:56:42;;;;;;;6.57;2.78;;;29.40;80.40;;;;;;4989686;28;20217;-69
2022/08/09 09:59:10;;;;;;;18.75;4.95;;;29.90;79.40;;;;;;4972894;28;20174;-69
2022/08/09 10:01:37;;;;;;;5.18;3.22;;;29.50;80.40;;;;;;4972258;28;20217;-69
2022/08/09 10:04:04;;;;;;;3.42;2.10;;;30.00;81.10;;;;;;4990449;28;20208;-69
2022/08/09 10:06:41;;;;;;;5.32;2.45;;;29.90;80.80;;;;;;4990298;28;20210;-70
2022/08/09 10:09:08;;;;;;;9.48;2.95;;;30.60;80.60;;;;;;4990390;28;20200;-70
2022/08/09 10:11:35;;;;;;;5.57;2.50;;;30.80;79.90;;;;;;4990768;28;20210;-70
2022/08/09 10:14:01;;;;;;;4.70;3.05;;;31.40;78.60;;;;;;4990666;28;20200;-69
2022/08/09 10:16:36;;;;;;;3.47;2.45;;;31.30;78.10;;;;;;4994474;28;20208;-69
2022/08/09 10:19:05;;;;;;;3.60;2.33;;;30.60;77.90;;;;;;4993775;28;20209;-69
2022/08/09 10:21:31;;;;;;;4.30;2.67;;;29.60;79.40;;;;;;4994002;28;20209;-70
2022/08/09 10:24:00;;;;;;;3.40;2.33;;;29.30;80.50;;;;;;4993851;28;20205;-68
2022/08/09 10:26:27;;;;;;;4.60;2.30;;;29.90;81.10;;;;;;4993909;28;20213;-70
2022/08/09 10:28:54;;;;;;;3.58;2.30;;;30.90;79.90;;;;;;4993705;28;20173;-70
2022/08/09 10:31:19;;;;;;;3.40;2.30;;;30.80;78.60;;;;;;4994561;28;20170;-70
2022/08/09 10:33:46;;;;;;;3.25;2.95;;;30.40;79.00;;;;;;4993518;28;20584;-70
2022/08/09 10:36:13;;;;;;;6.03;2.40;;;30.40;78.40;;;;;;4993607;28;20232;-70
2022/08/09 10:38:41;;;;;;;3.78;2.17;;;30.10;79.60;;;;;;4993277;28;20233;-69
2022/08/09 10:41:07;;;;;;;6.05;2.70;;;30.10;79.40;;;;;;4976062;28;20259;-70
2022/08/09 10:43:35;;;;;;;4.20;2.35;;;30.50;80.90;;;;;;4994009;28;20163;-70
2022/08/09 10:46:16;;;;;;;2.90;2.60;;;30.70;79.70;;;;;;4993459;28;20213;-69
2022/08/09 10:48:59;;;;;;;6.38;3.72;;;30.70;78.80;;;;;;4992714;28;20252;-70
2022/08/09 10:52:22;;;;;;;4.30;3.00;;;30.80;79.70;;;;;;4990368;28;20197;-69
2022/08/09 10:54:49;;;;;;;9.32;2.72;;;30.20;78.90;;;;;;4952087;28;20206;-69
2022/08/09 10:57:15;;;;;;;4.15;2.63;;;29.40;80.00;;;;;;4952382;28;20203;-69
2022/08/09 10:59:43;;;;;;;2.92;2.50;;;29.20;81.10;;;;;;4975208;28;20756;-75
2022/08/09 11:02:14;;;;;;;2.92;2.45;;;29.30;81.20;;;;;;4975991;28;20607;-70
2022/08/09 11:04:41;;;;;;;3.13;2.50;;;29.60;81.20;;;;;;4993732;28;20185;-69
2022/08/09 11:07:07;;;;;;;3.78;2.58;;;30.10;80.80;;;;;;4993074;28;20220;-70
2022/08/09 11:09:41;;;;;;;2.83;2.50;;;30.80;79.90;;;;;;4992252;28;20213;-69
2022/08/09 11:12:11;;;;;;;4.00;2.38;;;30.80;78.40;;;;;;4989546;28;20674;-69
2022/08/09 11:14:40;;;;;;;7.15;2.78;;;30.10;78.30;;;;;;4993050;28;20214;-70
2022/08/09 11:17:12;;;;;;;3.83;2.85;;;29.70;79.20;;;;;;4993026;28;20220;-70
2022/08/09 11:19:53;;;;;;;3.72;2.30;;;29.70;79.60;;;;;;4992452;28;20252;-70
2022/08/09 11:22:20;;;;;;;3.40;3.10;;;29.70;79.50;;;;;;4993374;28;20209;-70
2022/08/09 11:25:06;;;;;;;4.78;3.00;;;29.90;78.60;;;;;;4990916;28;20209;-69
2022/08/09 11:27:44;;;;;;;4.38;3.05;;;29.80;78.90;;;;;;4991491;28;20212;-69
2022/08/09 11:30:29;;;;;;;2.80;2.60;;;29.80;78.60;;;;;;4989739;28;20202;-69
2022/08/09 11:33:33;;;;;;;4.82;2.50;;;29.70;79.30;;;;;;4992821;28;20206;-69
2022/08/09 11:36:00;;;;;;;4.65;2.67;;;30.20;78.80;;;;;;4990867;28;20244;-70
2022/08/09 11:38:34;;;;;;;2.75;2.53;;;30.20;78.40;;;;;;4992530;28;20229;-70
2022/08/09 11:41:12;;;;;;;4.25;2.80;;;30.60;78.40;;;;;;4989449;28;20203;-69
2022/08/09 11:43:48;;;;;;;5.25;2.50;;;30.90;78.10;;;;;;4998719;28;20670;-69
2022/08/09 11:46:14;;;;;;;4.63;2.85;;;31.00;77.20;;;;;;4989456;28;20213;-69
2022/08/09 11:48:51;;;;;;;3.30;2.47;;;31.00;77.20;;;;;;4992393;28;20269;-70
2022/08/09 11:51:22;;;;;;;4.43;2.45;;;30.80;76.80;;;;;;4992650;28;20208;-69
2022/08/09 11:53:48;;;;;;;3.20;2.42;;;30.30;76.20;;;;;;4988113;28;20204;-69
2022/08/09 11:56:14;;;;;;;2.33;2.13;;;30.30;76.90;;;;;;4992622;28;20216;-69
2022/08/09 11:58:45;;;;;;;3.38;2.67;;;30.10;76.00;;;;;;4992522;28;20532;-69
2022/08/09 12:01:16;;;;;;;2.88;2.28;;;30.30;76.80;;;;;;4991989;28;20228;-68
2022/08/09 12:03:43;;;;;;;4.85;2.90;;;30.30;76.30;;;;;;4992251;28;20241;-69
2022/08/09 12:06:10;;;;;;;4.05;2.47;;;30.10;75.90;;;;;;4992085;28;20230;-70
2022/08/09 12:08:36;;;;;;;3.78;3.10;;;30.20;77.60;;;;;;4994539;28;21110;-68
2022/08/09 12:11:02;;;;;;;5.00;3.05;;;29.80;78.40;;;;;;4992021;28;20177;-69
2022/08/09 12:13:36;;;;;;;3.53;3.00;;;29.70;79.40;;;;;;4992419;28;20171;-69
2022/08/09 12:16:05;;;;;;;3.10;2.55;;;29.40;80.30;;;;;;4992157;28;20206;-69
2022/08/09 12:18:32;;;;;;;3.00;2.60;;;29.40;80.20;;;;;;4991743;28;20209;-68
2022/08/09 12:20:59;;;;;;;4.50;2.80;;;29.20;80.30;;;;;;4991859;28;20296;-69
2022/08/09 12:23:26;;;;;;;4.68;2.78;;;29.20;80.80;;;;;;4991755;28;20205;-69
2022/08/09 12:25:53;;;;;;;3.10;2.63;;;29.40;81.10;;;;;;4991866;28;20247;-69
2022/08/09 12:28:21;;;;;;;4.35;2.65;;;29.50;80.40;;;;;;4974558;28;20177;-68
2022/08/09 12:30:47;;;;;;;5.93;3.28;;;29.40;80.30;;;;;;4990294;28;20225;-69
2022/08/09 12:33:15;;;;;;;10.10;7.38;;;29.40;80.20;;;;;;4991904;28;20228;-68
2022/08/09 12:35:40;;;;;;;10.35;7.50;;;29.40;80.10;;;;;;4981212;28;20329;-69
2022/08/09 12:38:29;;;;;;;5.38;3.50;;;29.40;79.60;;;;;;4994099;28;20256;-68
2022/08/09 12:40:57;;;;;;;4.45;2.90;;;29.30;79.60;;;;;;4991484;28;20198;-68
2022/08/09 12:43:27;;;;;;;4.90;2.63;;;29.40;80.30;;;;;;4992052;28;20165;-69
2022/08/09 12:45:55;;;;;;;4.93;3.28;;;29.40;79.10;;;;;;4991152;28;20762;-69
2022/08/09 12:48:22;;;;;;;3.33;2.47;;;28.90;79.50;;;;;;5025218;23;20232;-74
2022/08/09 12:50:49;;;;;;;3.38;3.05;;;28.50;80.20;;;;;;5006959;28;20200;-74
2022/08/09 12:53:32;;;;;;;3.08;2.67;;;28.70;82.10;;;;;;4994161;28;20287;-74